createdAt,value
2022-11-13T00:00:14.751Z,88.50
2022-11-13T00:00:45.297Z,81.50
2022-11-13T00:01:16.234Z,43.20
2022-11-13T00:01:47.168Z,21.50
2022-11-13T00:02:18.205Z,70.10
2022-11-13T00:02:48.785Z,70.60
2022-11-13T00:03:19.539Z,39.80
2022-11-13T00:03:50.042Z,26.20
2022-11-13T00:04:20.535Z,32.70
2022-11-13T00:04:51.465Z,37.40
2022-11-13T00:05:22.435Z,77.70
2022-11-13T00:05:52.946Z,48.70
2022-11-13T00:06:23.655Z,29.50
2022-11-13T00:06:58.869Z,32.80
2022-11-13T00:07:25.155Z,70.20
2022-11-13T00:07:55.603Z,64.20
2022-11-13T00:08:27.113Z,80.60
2022-11-13T00:08:57.449Z,63.30
2022-11-13T00:09:27.952Z,45.60
2022-11-13T00:09:58.875Z,61.20
2022-11-13T00:10:29.847Z,68.00
2022-11-13T00:11:00.756Z,30.30
2022-11-13T00:11:31.685Z,52.00
2022-11-13T00:12:02.932Z,138.20
2022-11-13T00:12:33.460Z,44.80
2022-11-13T00:13:03.877Z,35.90
2022-11-13T00:13:34.803Z,42.60
2022-11-13T00:14:05.822Z,47.70
2022-11-13T00:14:36.745Z,49.20
2022-11-13T00:15:07.940Z,47.30
2022-11-13T00:15:38.418Z,58.30
2022-11-13T00:16:09.419Z,48.00
2022-11-13T00:16:40.365Z,58.60
2022-11-13T00:17:11.289Z,35.90
2022-11-13T00:17:42.293Z,45.10
2022-11-13T00:18:13.394Z,47.00
2022-11-13T00:18:43.909Z,42.90
2022-11-13T00:19:14.822Z,58.20
2022-11-13T00:19:45.809Z,70.80
2022-11-13T00:20:16.710Z,72.20
2022-11-13T00:20:47.664Z,53.50
2022-11-13T00:22:43.576Z,67.70
2022-11-13T00:23:14.578Z,66.70
2022-11-13T00:23:45.083Z,51.00
2022-11-13T00:24:16.202Z,49.90
2022-11-13T00:24:46.670Z,71.40
2022-11-13T00:25:17.579Z,31.50
2022-11-13T00:25:48.535Z,50.80
2022-11-13T00:26:19.465Z,57.30
2022-11-13T00:26:50.423Z,60.00
2022-11-13T00:27:21.690Z,39.90
2022-11-13T00:27:52.200Z,73.90
2022-11-13T00:28:23.133Z,34.80
2022-11-13T00:28:54.104Z,41.10
2022-11-13T00:29:25.070Z,49.20
2022-11-13T00:29:55.574Z,50.60
2022-11-13T00:30:26.305Z,37.10
2022-11-13T00:30:56.830Z,26.30
2022-11-13T00:31:27.242Z,29.00
2022-11-13T00:31:58.203Z,46.30
2022-11-13T00:32:29.214Z,47.00
2022-11-13T00:33:00.144Z,27.50
2022-11-13T00:34:02.101Z,36.80
2022-11-13T00:34:14.483Z,30.10
2022-11-13T00:34:47.281Z,60.30
2022-11-13T00:35:04.750Z,43.40
2022-11-13T00:35:34.448Z,53.30
2022-11-13T00:36:04.952Z,44.30
2022-11-13T00:36:35.879Z,26.40
2022-11-13T00:37:06.801Z,42.60
2022-11-13T00:37:37.703Z,76.50
2022-11-13T00:38:08.628Z,64.70
2022-11-13T00:38:39.764Z,65.50
2022-11-13T00:39:10.274Z,71.20
2022-11-13T00:39:40.781Z,58.40
2022-11-13T00:40:11.726Z,58.70
2022-11-13T00:40:42.691Z,83.50
2022-11-13T00:41:13.663Z,101.60
2022-11-13T00:41:44.799Z,57.40
2022-11-13T00:42:15.301Z,76.60
2022-11-13T00:42:46.345Z,55.90
2022-11-13T00:43:16.742Z,68.00
2022-11-13T00:43:47.745Z,89.90
2022-11-13T00:44:18.225Z,104.20
2022-11-13T00:44:49.338Z,92.80
2022-11-13T00:45:19.852Z,114.50
2022-11-13T00:45:50.764Z,86.40
2022-11-13T00:46:21.733Z,84.80
2022-11-13T00:46:52.652Z,70.80
2022-11-13T00:47:23.574Z,88.00
2022-11-13T00:47:54.690Z,73.90
2022-11-13T00:48:25.557Z,72.60
2022-11-13T00:48:55.860Z,79.10
2022-11-13T00:49:26.379Z,82.70
2022-11-13T00:49:57.351Z,100.10
2022-11-13T00:50:28.344Z,104.90
2022-11-13T00:50:59.465Z,93.60
2022-11-13T00:51:29.950Z,75.00
2022-11-13T00:52:00.924Z,84.10
2022-11-13T00:52:31.841Z,73.30
2022-11-13T00:53:02.835Z,72.80
2022-11-13T00:53:33.434Z,68.80
2022-11-13T00:54:04.093Z,90.40
2022-11-13T00:54:34.582Z,96.00
2022-11-13T00:55:08.591Z,86.20
2022-11-13T00:55:36.011Z,85.30
2022-11-13T00:56:06.933Z,74.20
2022-11-13T00:56:37.931Z,72.70
2022-11-13T00:57:09.036Z,62.10
2022-11-13T00:57:39.534Z,79.40
2022-11-13T00:58:10.576Z,72.50
2022-11-13T00:58:41.011Z,107.20
2022-11-13T00:59:11.965Z,51.40
2022-11-13T00:59:42.944Z,99.70
2022-11-13T01:00:14.080Z,100.60
2022-11-13T01:00:44.607Z,81.90
2022-11-13T01:01:15.139Z,65.40
2022-11-13T01:01:45.805Z,65.60
2022-11-13T01:02:16.273Z,62.80
2022-11-13T01:02:47.244Z,78.90
2022-11-13T01:03:18.359Z,55.40
2022-11-13T01:03:48.841Z,66.10
2022-11-13T01:04:19.817Z,77.80
2022-11-13T01:04:50.803Z,75.20
2022-11-13T01:05:21.301Z,51.30
2022-11-13T01:05:52.187Z,54.30
2022-11-13T01:06:23.353Z,50.30
2022-11-13T01:06:53.900Z,61.30
2022-11-13T01:07:24.691Z,77.80
2022-11-13T01:07:55.609Z,79.80
2022-11-13T01:08:27.001Z,77.80
2022-11-13T01:08:57.372Z,70.20
2022-11-13T01:09:28.469Z,52.80
2022-11-13T01:09:58.968Z,41.60
2022-11-13T01:10:29.911Z,49.20
2022-11-13T01:11:02.859Z,41.70
2022-11-13T01:11:31.865Z,23.00
2022-11-13T01:12:02.334Z,31.40
2022-11-13T01:12:33.425Z,43.30
2022-11-13T01:13:03.914Z,28.50
2022-11-13T01:13:34.957Z,40.90
2022-11-13T01:14:05.639Z,33.50
2022-11-13T01:14:36.641Z,51.40
2022-11-13T01:15:07.561Z,39.70
2022-11-13T01:15:38.789Z,39.00
2022-11-13T01:16:09.273Z,22.10
2022-11-13T01:16:40.233Z,23.30
2022-11-13T01:17:11.229Z,22.50
2022-11-13T01:17:42.152Z,20.90
2022-11-13T01:18:13.076Z,35.00
2022-11-13T01:18:44.297Z,31.90
2022-11-13T01:19:14.812Z,30.80
2022-11-13T01:19:45.706Z,40.90
2022-11-13T01:20:16.710Z,35.20
2022-11-13T01:20:47.224Z,29.40
2022-11-13T01:21:18.152Z,18.20
2022-11-13T01:21:49.345Z,21.10
2022-11-13T01:22:19.860Z,23.80
2022-11-13T01:22:50.786Z,28.00
2022-11-13T01:23:21.681Z,27.50
2022-11-13T01:23:52.677Z,23.20
2022-11-13T01:24:23.595Z,62.60
2022-11-13T01:24:54.797Z,40.90
2022-11-13T01:25:25.300Z,45.90
2022-11-13T01:25:55.795Z,35.10
2022-11-13T01:26:26.726Z,52.50
2022-11-13T01:26:57.720Z,47.00
2022-11-13T01:27:28.639Z,57.10
2022-11-13T01:27:59.802Z,44.40
2022-11-13T01:28:30.680Z,32.40
2022-11-13T01:29:00.959Z,63.80
2022-11-13T01:29:31.370Z,26.80
2022-11-13T01:30:02.333Z,38.30
2022-11-13T01:30:33.295Z,46.30
2022-11-13T01:31:04.410Z,41.70
2022-11-13T01:31:34.971Z,31.90
2022-11-13T01:32:05.554Z,60.90
2022-11-13T01:32:36.063Z,58.10
2022-11-13T01:33:06.607Z,41.40
2022-11-13T01:33:37.186Z,28.70
2022-11-13T01:34:07.903Z,35.50
2022-11-13T01:34:38.445Z,36.40
2022-11-13T01:35:09.443Z,73.50
2022-11-13T01:35:40.376Z,53.30
2022-11-13T01:36:11.300Z,18.60
2022-11-13T01:36:42.223Z,19.40
2022-11-13T01:37:13.399Z,40.70
2022-11-13T01:37:43.828Z,54.30
2022-11-13T01:38:14.804Z,58.90
2022-11-13T01:38:45.813Z,41.20
2022-11-13T01:39:16.728Z,35.20
2022-11-13T01:39:47.647Z,30.20
2022-11-13T01:40:18.757Z,24.50
2022-11-13T01:40:49.256Z,29.20
2022-11-13T01:41:23.329Z,15.70
2022-11-13T01:41:50.946Z,21.20
2022-11-13T01:42:21.912Z,25.30
2022-11-13T01:42:52.819Z,30.70
2022-11-13T01:43:23.995Z,31.80
2022-11-13T01:43:54.507Z,49.40
2022-11-13T01:44:25.594Z,41.20
2022-11-13T01:44:56.053Z,49.40
2022-11-13T01:45:27.092Z,32.70
2022-11-13T01:45:57.524Z,33.60
2022-11-13T01:46:28.654Z,36.60
2022-11-13T01:46:59.173Z,43.70
2022-11-13T01:47:29.704Z,51.10
2022-11-13T01:48:00.133Z,40.50
2022-11-13T01:48:31.253Z,25.30
2022-11-13T01:49:01.858Z,32.30
2022-11-13T01:49:32.975Z,31.10
2022-11-13T01:50:03.492Z,21.60
2022-11-13T01:50:34.459Z,31.80
2022-11-13T01:51:05.457Z,33.70
2022-11-13T01:51:36.381Z,34.90
2022-11-13T01:52:07.305Z,38.70
2022-11-13T01:52:38.490Z,28.60
2022-11-13T01:53:08.909Z,32.90
2022-11-13T01:53:39.917Z,36.80
2022-11-13T01:54:10.842Z,46.30
2022-11-13T01:54:41.847Z,49.00
2022-11-13T01:55:12.812Z,25.70
2022-11-13T01:55:43.928Z,29.80
2022-11-13T01:56:14.423Z,26.80
2022-11-13T01:56:45.348Z,30.10
2022-11-13T01:57:16.277Z,21.60
2022-11-13T01:57:47.240Z,32.00
2022-11-13T01:58:18.166Z,27.40
2022-11-13T01:58:49.413Z,23.70
2022-11-13T01:59:20.070Z,40.10
2022-11-13T01:59:51.227Z,29.90
2022-11-13T02:00:21.724Z,38.70
2022-11-13T02:00:52.699Z,28.10
2022-11-13T02:01:23.393Z,37.50
2022-11-13T02:01:54.120Z,46.10
2022-11-13T02:02:24.709Z,40.30
2022-11-13T02:02:55.236Z,39.70
2022-11-13T02:03:25.685Z,32.70
2022-11-13T02:03:56.143Z,31.90
2022-11-13T02:04:27.210Z,13.30
2022-11-13T02:04:57.867Z,20.00
2022-11-13T02:05:28.392Z,32.20
2022-11-13T02:05:58.794Z,47.30
2022-11-13T02:06:29.712Z,32.90
2022-11-13T02:07:00.725Z,35.30
2022-11-13T02:07:31.307Z,41.30
2022-11-13T02:08:02.036Z,60.60
2022-11-13T02:08:32.553Z,37.10
2022-11-13T02:09:03.473Z,34.30
2022-11-13T02:09:34.432Z,41.60
2022-11-13T02:10:05.371Z,41.40
2022-11-13T02:10:36.314Z,19.60
2022-11-13T02:11:07.477Z,31.30
2022-11-13T02:11:37.994Z,28.70
2022-11-13T02:12:08.915Z,48.10
2022-11-13T02:12:39.846Z,51.90
2022-11-13T02:13:10.812Z,25.50
2022-11-13T02:13:41.738Z,29.70
2022-11-13T02:14:12.898Z,32.00
2022-11-13T02:14:43.411Z,38.10
2022-11-13T02:15:14.423Z,44.40
2022-11-13T02:15:44.937Z,41.40
2022-11-13T02:16:15.854Z,29.60
2022-11-13T02:16:46.836Z,25.60
2022-11-13T02:17:17.962Z,37.50
2022-11-13T02:17:48.464Z,31.70
2022-11-13T02:18:19.446Z,34.20
2022-11-13T02:18:50.348Z,19.60
2022-11-13T02:19:21.268Z,23.50
2022-11-13T02:19:52.195Z,24.70
2022-11-13T02:20:23.311Z,39.40
2022-11-13T02:20:53.831Z,33.30
2022-11-13T02:21:24.756Z,29.60
2022-11-13T02:21:55.683Z,52.00
2022-11-13T02:22:26.710Z,57.80
2022-11-13T02:22:57.125Z,49.70
2022-11-13T02:23:28.322Z,61.20
2022-11-13T02:23:58.750Z,27.90
2022-11-13T02:24:31.002Z,38.80
2022-11-13T02:25:00.313Z,29.40
2022-11-13T02:25:31.239Z,32.20
2022-11-13T02:26:02.171Z,50.40
2022-11-13T02:26:33.279Z,24.90
2022-11-13T02:27:03.755Z,35.30
2022-11-13T02:27:34.759Z,26.30
2022-11-13T02:28:05.691Z,24.30
2022-11-13T02:28:36.676Z,29.10
2022-11-13T02:29:07.596Z,33.20
2022-11-13T02:29:38.699Z,23.30
2022-11-13T02:30:12.790Z,37.40
2022-11-13T02:30:40.283Z,34.60
2022-11-13T02:31:10.711Z,33.50
2022-11-13T02:31:41.714Z,31.50
2022-11-13T02:32:12.500Z,31.80
2022-11-13T02:32:43.086Z,18.20
2022-11-13T02:33:13.584Z,25.90
2022-11-13T02:33:44.121Z,10.70
2022-11-13T02:34:14.618Z,17.70
2022-11-13T02:34:45.529Z,24.60
2022-11-13T02:35:16.656Z,16.10
2022-11-13T02:35:47.167Z,31.80
2022-11-13T02:36:18.156Z,45.90
2022-11-13T02:36:48.673Z,29.70
2022-11-13T02:37:19.189Z,52.10
2022-11-13T02:37:49.658Z,30.50
2022-11-13T02:38:20.390Z,36.50
2022-11-13T02:38:50.916Z,22.20
2022-11-13T02:39:21.842Z,28.80
2022-11-13T02:39:52.845Z,28.40
2022-11-13T02:40:23.766Z,29.10
2022-11-13T02:40:54.694Z,14.70
2022-11-13T02:41:25.893Z,20.80
2022-11-13T02:41:56.415Z,13.20
2022-11-13T02:42:27.338Z,33.00
2022-11-13T02:42:58.341Z,24.30
2022-11-13T02:43:29.280Z,44.40
2022-11-13T02:44:00.273Z,47.80
2022-11-13T02:44:31.399Z,27.50
2022-11-13T02:45:01.947Z,39.20
2022-11-13T02:45:32.863Z,25.80
2022-11-13T02:46:03.902Z,36.00
2022-11-13T02:46:34.337Z,25.80
2022-11-13T02:47:05.370Z,24.50
2022-11-13T02:47:36.008Z,28.30
2022-11-13T02:48:06.521Z,28.90
2022-11-13T02:48:37.442Z,54.10
2022-11-13T02:49:08.435Z,32.20
2022-11-13T02:49:39.360Z,25.60
2022-11-13T02:50:10.342Z,43.70
2022-11-13T02:50:41.508Z,58.60
2022-11-13T02:51:12.012Z,35.80
2022-11-13T02:51:42.946Z,29.90
2022-11-13T02:52:13.905Z,40.00
2022-11-13T02:52:44.921Z,28.20
2022-11-13T02:53:15.463Z,37.00
2022-11-13T02:53:46.563Z,39.10
2022-11-13T02:54:17.384Z,45.80
2022-11-13T02:54:47.880Z,53.10
2022-11-13T02:55:18.783Z,42.90
2022-11-13T02:55:49.702Z,43.00
2022-11-13T02:56:20.623Z,54.70
2022-11-13T02:56:51.739Z,41.30
2022-11-13T02:57:22.238Z,47.00
2022-11-13T02:57:53.241Z,71.70
2022-11-13T02:58:23.725Z,37.50
2022-11-13T02:58:54.640Z,30.30
2022-11-13T02:59:25.636Z,23.20
2022-11-13T02:59:56.710Z,24.20
2022-11-13T03:00:27.209Z,13.60
2022-11-13T03:00:58.179Z,20.20
2022-11-13T03:01:29.310Z,19.00
2022-11-13T03:01:59.915Z,22.80
2022-11-13T03:02:30.353Z,43.20
2022-11-13T03:03:01.512Z,31.70
2022-11-13T03:03:56.679Z,27.30
2022-11-13T03:04:03.901Z,41.20
2022-11-13T03:04:50.518Z,57.80
2022-11-13T03:05:11.832Z,49.40
2022-11-13T03:05:37.007Z,37.40
2022-11-13T03:06:06.514Z,40.50
2022-11-13T03:06:37.490Z,44.80
2022-11-13T03:07:08.020Z,27.10
2022-11-13T03:07:38.782Z,29.10
2022-11-13T03:08:09.779Z,40.40
2022-11-13T03:08:40.984Z,25.40
2022-11-13T03:09:11.487Z,26.90
2022-11-13T03:09:42.459Z,22.40
2022-11-13T03:10:13.381Z,26.50
2022-11-13T03:10:44.381Z,15.50
2022-11-13T03:11:15.291Z,27.10
2022-11-13T03:11:46.428Z,32.10
2022-11-13T03:12:16.935Z,38.60
2022-11-13T03:12:47.921Z,36.90
2022-11-13T03:13:18.847Z,26.70
2022-11-13T03:13:49.790Z,28.90
2022-11-13T03:14:20.854Z,22.10
2022-11-13T03:14:51.583Z,20.90
2022-11-13T03:15:22.111Z,18.90
2022-11-13T03:15:52.579Z,20.20
2022-11-13T03:16:23.553Z,22.30
2022-11-13T03:16:54.609Z,14.90
2022-11-13T03:17:25.043Z,13.10
2022-11-13T03:17:56.151Z,17.00
2022-11-13T03:18:27.035Z,19.10
2022-11-13T03:18:57.191Z,19.90
2022-11-13T03:19:28.113Z,15.00
2022-11-13T03:19:59.078Z,34.50
2022-11-13T03:20:30.027Z,22.20
2022-11-13T03:21:01.167Z,23.40
2022-11-13T03:21:31.721Z,14.40
2022-11-13T03:22:02.158Z,23.50
2022-11-13T03:22:33.178Z,18.10
2022-11-13T03:23:04.082Z,16.20
2022-11-13T03:23:34.982Z,29.70
2022-11-13T03:24:06.119Z,34.30
2022-11-13T03:24:36.613Z,26.00
2022-11-13T03:25:10.668Z,27.50
2022-11-13T03:25:38.059Z,27.70
2022-11-13T03:26:09.007Z,36.00
2022-11-13T03:26:40.009Z,41.80
2022-11-13T03:27:11.182Z,24.80
2022-11-13T03:27:41.695Z,27.50
2022-11-13T03:28:12.138Z,23.80
2022-11-13T03:28:43.249Z,36.50
2022-11-13T03:29:13.698Z,24.80
2022-11-13T03:29:44.704Z,23.90
2022-11-13T03:30:15.913Z,32.70
2022-11-13T03:30:46.562Z,28.00
2022-11-13T03:31:20.188Z,23.90
2022-11-13T03:31:47.732Z,21.90
2022-11-13T03:32:18.767Z,31.60
2022-11-13T03:32:49.226Z,13.00
2022-11-13T03:33:20.351Z,20.50
2022-11-13T03:33:50.857Z,37.20
2022-11-13T03:34:21.799Z,27.80
2022-11-13T03:34:52.797Z,42.70
2022-11-13T03:35:23.820Z,32.80
2022-11-13T03:35:54.291Z,22.00
2022-11-13T03:36:25.409Z,32.50
2022-11-13T03:36:55.900Z,34.20
2022-11-13T03:37:26.823Z,34.00
2022-11-13T03:37:57.741Z,48.90
2022-11-13T03:38:29.082Z,41.10
2022-11-13T03:38:59.257Z,49.50
2022-11-13T03:39:30.420Z,33.80
2022-11-13T03:40:00.981Z,36.00
2022-11-13T03:40:31.460Z,30.40
2022-11-13T03:41:02.006Z,14.30
2022-11-13T03:41:32.484Z,22.20
2022-11-13T03:42:03.503Z,41.70
2022-11-13T03:42:34.217Z,35.80
2022-11-13T03:43:04.754Z,51.30
2022-11-13T03:43:35.222Z,55.30
2022-11-13T03:44:05.691Z,22.50
2022-11-13T03:44:36.725Z,30.90
2022-11-13T03:45:07.136Z,34.50
2022-11-13T03:45:38.351Z,34.30
2022-11-13T03:46:08.794Z,20.80
2022-11-13T03:46:40.475Z,16.70
2022-11-13T03:47:10.511Z,27.10
2022-11-13T03:47:41.550Z,24.70
2022-11-13T03:48:12.037Z,13.70
2022-11-13T03:48:43.167Z,25.30
2022-11-13T03:49:13.635Z,11.80
2022-11-13T03:49:44.254Z,12.80
2022-11-13T03:50:14.722Z,23.20
2022-11-13T03:50:45.855Z,16.00
2022-11-13T03:51:16.302Z,16.90
2022-11-13T03:51:47.466Z,35.70
2022-11-13T03:52:17.973Z,23.00
2022-11-13T03:52:48.930Z,15.10
2022-11-13T03:53:19.863Z,17.00
2022-11-13T03:53:50.411Z,9.80
2022-11-13T03:54:21.329Z,11.70
2022-11-13T03:54:52.534Z,14.10
2022-11-13T03:55:23.033Z,11.40
2022-11-13T03:55:54.005Z,8.60
2022-11-13T03:56:24.929Z,7.60
2022-11-13T03:56:55.921Z,14.60
2022-11-13T03:57:26.889Z,10.60
2022-11-13T03:57:58.005Z,10.00
2022-11-13T03:58:28.763Z,8.30
2022-11-13T03:58:59.110Z,7.60
2022-11-13T03:59:30.029Z,8.20
2022-11-13T04:00:00.954Z,12.60
2022-11-13T04:00:31.956Z,8.70
2022-11-13T04:01:02.670Z,10.20
2022-11-13T04:01:33.179Z,8.20
2022-11-13T04:02:03.749Z,8.50
2022-11-13T04:02:34.245Z,9.90
2022-11-13T04:03:05.332Z,9.30
2022-11-13T04:03:35.862Z,8.60
2022-11-13T04:04:06.498Z,11.30
2022-11-13T04:04:37.039Z,17.90
2022-11-13T04:05:07.476Z,11.90
2022-11-13T04:05:38.453Z,17.10
2022-11-13T04:06:09.047Z,15.10
2022-11-13T04:06:39.541Z,10.10
2022-11-13T04:07:10.247Z,10.50
2022-11-13T04:07:40.842Z,13.20
2022-11-13T04:08:11.282Z,11.70
2022-11-13T04:08:42.233Z,7.20
2022-11-13T04:09:13.176Z,9.70
2022-11-13T04:09:44.075Z,9.20
2022-11-13T04:10:15.229Z,16.80
2022-11-13T04:10:45.850Z,10.80
2022-11-13T04:11:16.824Z,9.70
2022-11-13T04:11:47.324Z,7.80
2022-11-13T04:12:18.248Z,8.40
2022-11-13T04:12:49.171Z,10.90
2022-11-13T04:13:20.270Z,14.40
2022-11-13T04:13:50.781Z,9.50
2022-11-13T04:14:21.700Z,7.30
2022-11-13T04:14:52.615Z,11.90
2022-11-13T04:15:23.541Z,10.20
2022-11-13T04:15:54.471Z,11.50
2022-11-13T04:16:25.662Z,8.50
2022-11-13T04:16:56.156Z,10.30
2022-11-13T04:17:27.077Z,8.80
2022-11-13T04:17:57.997Z,6.80
2022-11-13T04:18:29.540Z,15.60
2022-11-13T04:18:59.712Z,7.70
2022-11-13T04:19:30.836Z,19.80
2022-11-13T04:20:01.347Z,16.50
2022-11-13T04:20:32.347Z,15.00
2022-11-13T04:21:03.268Z,12.00
2022-11-13T04:21:34.313Z,20.30
2022-11-13T04:22:06.781Z,12.60
2022-11-13T04:22:35.949Z,8.70
2022-11-13T04:23:06.526Z,15.00
2022-11-13T04:23:36.966Z,27.30
2022-11-13T04:24:07.983Z,24.70
2022-11-13T04:24:38.500Z,28.50
2022-11-13T04:25:09.031Z,13.70
2022-11-13T04:25:39.802Z,31.10
2022-11-13T04:26:10.342Z,37.30
2022-11-13T04:26:41.381Z,34.40
2022-11-13T04:27:11.938Z,35.60
2022-11-13T04:27:42.419Z,33.90
2022-11-13T04:28:13.378Z,46.10
2022-11-13T04:28:44.123Z,32.70
2022-11-13T04:29:14.640Z,42.00
2022-11-13T04:29:45.095Z,41.00
2022-11-13T04:30:16.068Z,24.80
2022-11-13T04:30:46.998Z,19.50
2022-11-13T04:31:17.954Z,16.90
2022-11-13T04:31:49.072Z,14.20
2022-11-13T04:32:19.481Z,9.10
2022-11-13T04:32:50.460Z,10.60
2022-11-13T04:33:21.399Z,9.30
2022-11-13T04:33:52.487Z,10.40
2022-11-13T04:34:22.924Z,9.50
2022-11-13T04:34:54.148Z,7.70
2022-11-13T04:35:24.635Z,9.90
2022-11-13T04:35:55.544Z,11.40
2022-11-13T04:36:26.503Z,9.20
2022-11-13T04:36:57.586Z,10.00
2022-11-13T04:37:28.098Z,9.10
2022-11-13T04:37:58.734Z,9.20
2022-11-13T04:38:29.742Z,8.10
2022-11-13T04:38:59.873Z,8.40
2022-11-13T04:39:30.874Z,18.60
2022-11-13T04:40:01.319Z,8.80
2022-11-13T04:40:32.338Z,7.40
2022-11-13T04:41:03.506Z,13.60
2022-11-13T04:41:34.012Z,24.90
2022-11-13T04:42:04.983Z,26.00
2022-11-13T04:42:35.870Z,19.40
2022-11-13T04:43:06.839Z,15.20
2022-11-13T04:43:37.854Z,19.90
2022-11-13T04:44:08.656Z,17.70
2022-11-13T04:44:39.180Z,18.20
2022-11-13T04:45:09.654Z,15.10
2022-11-13T04:45:40.211Z,24.30
2022-11-13T04:46:10.682Z,38.80
2022-11-13T04:46:41.642Z,22.80
2022-11-13T04:47:12.881Z,15.60
2022-11-13T04:47:43.396Z,13.70
2022-11-13T04:48:14.337Z,23.50
2022-11-13T04:48:45.324Z,19.40
2022-11-13T04:49:16.365Z,24.90
2022-11-13T04:49:47.097Z,24.60
2022-11-13T04:50:18.306Z,37.50
2022-11-13T04:50:48.790Z,28.80
2022-11-13T04:51:19.750Z,24.50
2022-11-13T04:51:50.723Z,19.70
2022-11-13T04:52:21.234Z,20.30
2022-11-13T04:52:51.733Z,32.70
2022-11-13T04:53:22.839Z,32.30
2022-11-13T04:53:53.386Z,31.00
2022-11-13T04:54:28.551Z,18.30
2022-11-13T04:54:55.778Z,33.50
2022-11-13T04:55:25.202Z,41.70
2022-11-13T04:55:56.390Z,23.00
2022-11-13T04:56:26.889Z,22.20
2022-11-13T04:56:57.364Z,27.50
2022-11-13T04:57:28.391Z,21.40
2022-11-13T04:57:58.801Z,28.50
2022-11-13T04:58:30.041Z,15.10
2022-11-13T04:59:00.956Z,16.50
2022-11-13T04:59:31.457Z,12.10
2022-11-13T05:00:02.375Z,22.70
2022-11-13T05:00:33.304Z,14.30
2022-11-13T05:01:04.231Z,21.00
2022-11-13T05:01:35.306Z,30.00
2022-11-13T05:02:06.012Z,19.40
2022-11-13T05:02:36.519Z,17.20
2022-11-13T05:03:07.523Z,16.80
2022-11-13T05:03:38.457Z,28.30
2022-11-13T05:04:09.458Z,21.90
2022-11-13T05:04:40.081Z,20.00
2022-11-13T05:05:10.693Z,25.70
2022-11-13T05:05:41.153Z,23.80
2022-11-13T05:06:12.120Z,27.50
2022-11-13T05:06:43.162Z,21.60
2022-11-13T05:07:13.717Z,16.60
2022-11-13T05:07:44.248Z,20.20
2022-11-13T05:08:15.355Z,17.10
2022-11-13T05:08:45.826Z,10.20
2022-11-13T05:09:16.751Z,27.50
2022-11-13T05:09:47.726Z,48.60
2022-11-13T05:10:18.653Z,35.40
2022-11-13T05:10:49.571Z,25.00
2022-11-13T05:11:20.762Z,17.10
2022-11-13T05:11:51.294Z,16.20
2022-11-13T05:12:22.223Z,19.40
2022-11-13T05:12:53.194Z,19.10
2022-11-13T05:13:24.123Z,14.10
2022-11-13T05:13:59.466Z,15.60
2022-11-13T05:14:26.025Z,15.10
2022-11-13T05:14:56.961Z,20.00
2022-11-13T05:15:27.933Z,19.90
2022-11-13T05:15:58.853Z,19.50
2022-11-13T05:16:29.770Z,18.60
2022-11-13T05:17:00.972Z,18.50
2022-11-13T05:17:31.470Z,19.60
2022-11-13T05:18:02.438Z,12.90
2022-11-13T05:18:33.360Z,20.30
2022-11-13T05:19:04.283Z,21.90
2022-11-13T05:19:35.263Z,19.50
2022-11-13T05:20:06.414Z,22.50
2022-11-13T05:20:36.908Z,16.20
2022-11-13T05:21:07.830Z,24.20
2022-11-13T05:21:38.816Z,14.20
2022-11-13T05:22:09.305Z,24.40
2022-11-13T05:22:40.235Z,20.70
2022-11-13T05:23:11.472Z,23.70
2022-11-13T05:23:41.894Z,23.90
2022-11-13T05:24:12.811Z,8.10
2022-11-13T05:24:43.781Z,18.10
2022-11-13T05:25:14.702Z,9.80
2022-11-13T05:25:45.246Z,13.60
2022-11-13T05:26:16.361Z,13.70
2022-11-13T05:26:46.868Z,10.30
2022-11-13T05:27:18.056Z,21.70
2022-11-13T05:27:48.692Z,14.90
2022-11-13T05:28:19.653Z,24.70
2022-11-13T05:28:50.571Z,16.50
2022-11-13T05:29:21.742Z,12.20
2022-11-13T05:29:52.238Z,12.20
2022-11-13T05:30:22.737Z,12.30
2022-11-13T05:30:53.164Z,12.90
2022-11-13T05:31:24.104Z,18.90
2022-11-13T05:31:55.024Z,10.50
2022-11-13T05:32:26.137Z,16.50
2022-11-13T05:32:56.654Z,12.50
2022-11-13T05:33:27.872Z,14.50
2022-11-13T05:34:04.166Z,11.10
2022-11-13T05:34:29.224Z,16.40
2022-11-13T05:35:00.329Z,19.00
2022-11-13T05:35:30.861Z,14.20
2022-11-13T05:36:01.832Z,8.70
2022-11-13T05:36:32.344Z,14.50
2022-11-13T05:37:03.336Z,18.70
2022-11-13T05:37:34.251Z,9.50
2022-11-13T05:38:05.368Z,23.10
2022-11-13T05:38:35.909Z,22.40
2022-11-13T05:39:06.306Z,17.70
2022-11-13T05:39:37.240Z,11.20
2022-11-13T05:40:08.263Z,10.90
2022-11-13T05:40:38.762Z,9.10
2022-11-13T05:41:09.895Z,8.20
2022-11-13T05:41:40.406Z,14.80
2022-11-13T05:42:11.333Z,20.00
2022-11-13T05:42:42.282Z,11.50
2022-11-13T05:43:13.290Z,7.50
2022-11-13T05:43:44.263Z,9.10
2022-11-13T05:44:14.955Z,11.50
2022-11-13T05:44:45.448Z,7.90
2022-11-13T05:45:16.430Z,17.40
2022-11-13T05:45:47.398Z,8.50
2022-11-13T05:46:18.326Z,15.00
2022-11-13T05:46:49.322Z,19.70
2022-11-13T05:47:20.423Z,14.80
2022-11-13T05:47:50.916Z,10.70
2022-11-13T05:48:21.853Z,7.70
2022-11-13T05:48:52.825Z,16.30
2022-11-13T05:49:23.760Z,13.80
2022-11-13T05:49:54.682Z,12.70
2022-11-13T05:50:25.800Z,11.20
2022-11-13T05:50:56.403Z,9.40
2022-11-13T05:51:26.823Z,16.40
2022-11-13T05:51:57.830Z,10.20
2022-11-13T05:52:28.749Z,12.20
2022-11-13T05:52:59.675Z,11.90
2022-11-13T05:53:30.793Z,9.20
2022-11-13T05:54:01.274Z,11.90
2022-11-13T05:54:32.259Z,8.30
2022-11-13T05:55:02.757Z,10.30
2022-11-13T05:55:33.264Z,15.30
2022-11-13T05:56:03.767Z,10.30
2022-11-13T05:56:34.891Z,8.90
2022-11-13T05:57:05.384Z,10.10
2022-11-13T05:57:36.337Z,13.20
2022-11-13T05:58:07.245Z,13.90
2022-11-13T05:58:38.161Z,14.10
2022-11-13T05:59:09.128Z,9.70
2022-11-13T05:59:39.849Z,9.70
2022-11-13T06:00:10.378Z,8.40
2022-11-13T06:00:40.870Z,10.80
2022-11-13T06:01:11.788Z,13.90
2022-11-13T06:01:42.798Z,8.90
2022-11-13T06:02:13.385Z,17.90
2022-11-13T06:02:44.163Z,7.50
2022-11-13T06:03:14.668Z,9.90
2022-11-13T06:03:45.168Z,8.90
2022-11-13T06:04:16.139Z,9.40
2022-11-13T06:04:47.141Z,11.70
2022-11-13T06:05:18.059Z,16.00
2022-11-13T06:05:49.226Z,14.10
2022-11-13T06:06:19.836Z,14.20
2022-11-13T06:06:50.406Z,12.40
2022-11-13T06:07:21.286Z,7.60
2022-11-13T06:07:51.779Z,13.00
2022-11-13T06:08:22.703Z,8.60
2022-11-13T06:08:53.888Z,8.50
2022-11-13T06:09:24.375Z,12.40
2022-11-13T06:09:54.875Z,11.50
2022-11-13T06:10:25.850Z,12.70
2022-11-13T06:10:56.775Z,10.50
2022-11-13T06:11:27.727Z,12.50
2022-11-13T06:11:58.781Z,11.40
2022-11-13T06:12:29.282Z,15.60
2022-11-13T06:13:00.163Z,19.10
2022-11-13T06:13:31.079Z,13.80
2022-11-13T06:14:01.951Z,11.20
2022-11-13T06:14:32.927Z,13.10
2022-11-13T06:15:03.988Z,14.40
2022-11-13T06:15:34.437Z,11.30
2022-11-13T06:16:05.312Z,14.80
2022-11-13T06:16:36.243Z,12.50
2022-11-13T06:17:07.129Z,10.20
2022-11-13T06:17:38.002Z,11.80
2022-11-13T06:18:09.065Z,13.70
2022-11-13T06:18:39.496Z,14.90
2022-11-13T06:19:10.447Z,28.70
2022-11-13T06:19:41.364Z,20.40
2022-11-13T06:20:12.197Z,18.20
2022-11-13T06:20:43.156Z,11.20
2022-11-13T06:21:14.276Z,21.50
2022-11-13T06:21:44.800Z,21.90
2022-11-13T06:22:15.258Z,19.60
2022-11-13T06:22:46.123Z,16.60
2022-11-13T06:23:17.062Z,18.90
2022-11-13T06:23:47.987Z,32.70
2022-11-13T06:24:19.105Z,29.20
2022-11-13T06:24:49.539Z,12.40
2022-11-13T06:25:20.401Z,22.70
2022-11-13T06:25:51.302Z,32.00
2022-11-13T06:26:22.269Z,21.40
2022-11-13T06:26:53.162Z,11.80
2022-11-13T06:27:24.299Z,22.40
2022-11-13T06:27:54.746Z,21.00
2022-11-13T06:28:25.879Z,19.30
2022-11-13T06:28:56.482Z,22.70
2022-11-13T06:29:27.385Z,14.70
2022-11-13T06:29:58.312Z,10.60
2022-11-13T06:30:29.552Z,13.80
2022-11-13T06:31:00.004Z,31.00
2022-11-13T06:31:30.871Z,20.60
2022-11-13T06:32:01.755Z,14.50
2022-11-13T06:32:32.626Z,15.90
2022-11-13T06:33:03.574Z,14.90
2022-11-13T06:33:34.636Z,14.30
2022-11-13T06:34:05.074Z,21.10
2022-11-13T06:34:35.981Z,12.90
2022-11-13T06:35:06.872Z,14.00
2022-11-13T06:35:37.789Z,14.30
2022-11-13T06:36:08.680Z,12.40
2022-11-13T06:36:39.814Z,13.70
2022-11-13T06:37:10.368Z,12.80
2022-11-13T06:37:40.780Z,17.60
2022-11-13T06:38:11.705Z,14.10
2022-11-13T06:38:42.640Z,15.00
2022-11-13T06:39:13.679Z,19.60